NATURA VA

 METAR AND TAF INFORMATION
METAR FOR LPMA
ADDS - METARS form results

(1605 UTC 26 March 2019)
Data provider http://aviationweather.gov/metar/data/
 
METAR text: LPMA 261600Z 36019KT 310V030 9999 FEW015 20/12 Q1010
Conditions at: LPMA (FUNCHAL/MADEIRA , PT) observed 1600 UTC 26 March 2019
Temperature: 20.0°C (68°F)
Dewpoint: 12.0°C (54°F) [RH = 60%]
Pressure (altimeter): 29.82 inches Hg (1010.0 mb)
Winds: from the N (360 degrees) at 22 MPH (19 knots; 9.8 m/s)
Visibility: 6 or more miles (10+ km)
Ceiling: at least 12,000 feet AGL
Clouds: few clouds at 1500 feet AGL
Weather: no significant weather observed at this time

METAR text: LPMA 261530Z 36018KT 9999 FEW015 20/12 Q1010
Conditions at: LPMA (FUNCHAL/MADEIRA , PT) observed 1530 UTC 26 March 2019
Temperature: 20.0°C (68°F)
Dewpoint: 12.0°C (54°F) [RH = 60%]
Pressure (altimeter): 29.82 inches Hg (1010.0 mb)
Winds: from the N (360 degrees) at 21 MPH (18 knots; 9.3 m/s)
Visibility: 6 or more miles (10+ km)
Ceiling: at least 12,000 feet AGL
Clouds: few clouds at 1500 feet AGL
Weather: no significant weather observed at this time

Forecast for: LPMA (FUNCHAL/MADEIRA , PT)
Text: TAF LPMA 261100Z 2612/2712 36015KT 9999 SCT015
Forecast period: 1200 UTC 26 March 2019 to 0000 UTC 27 March 2019
Forecast type: FROM: standard forecast or significant change
Winds: from the N (360 degrees) at 17 MPH (15 knots; 7.7 m/s)
Visibility: 6 or more miles 10+ km)
Ceiling: at least 12,000 feet AGL
Clouds: scattered clouds at 1500 feet AGL
Weather: no significant weather forecast for this period
Text: PROB30
Forecast period: 1200 to 2100 UTC 26 March 2019
Forecast type: TEMPORARY: The following changes expected for less than half the time period
Winds: from the N (350 degrees) at 23 MPH (20 knots; 10.3 m/s)
gusting to 34 MPH (30 knots; 15.4 m/s)
Visibility: 5 miles (8 km)
Ceiling: 1500 feet AGL
Clouds: broken clouds at 1500 feet AGL
few clouds at 1800 feet AGL
Weather: SHRA  (rain showers)
Text: TEMPO 2612/2621 35020G30KT 8000 SHRA BKN015 FEW018CB
Forecast period: 0000 to 1200 UTC 27 March 2019
Forecast type: BECOMING: Conditions expected to become as follows by 0300 UTC 27 March 2019
Winds: from the NNW (330 degrees) at 9 MPH (8 knots; 4.1 m/s)
Visibility: 6 or more miles 10+ km)
Ceiling: at least 12,000 feet AGL
Clouds: scattered clouds at 1500 feet AGL
Weather: no significant weather forecast for this period

 AIRPORT MAP

 RUNWAY INFORMATION
Runway 05 Runway length 9110 ft Runway width 148 ft
Runway elevation 147 ft Runway displaced threshold 480 ft Runway heading 45
Runway 23 Runway length 9110 ft Runway width 148 ft
Runway elevation 192 ft Runway displaced threshold 490 ft Runway heading 225

 AIRPORT FREQUENCIES
Type APP Name APP Frequency 119.2 MHZ
Type TWR Name TWR Frequency 118.35 MHZ

 AIRPORT NEAR NAVIGATION AIDS
Type VOR-DME Name Madeira Frequency 112200 KHZ
Type NDB Name Madeira Frequency 318 KHZ



Powered by Virtual Airlines Manager [v2.6.2]